Time;durP1;ratioP1;P1;durP2;ratioP2;P2;SDS_P1;SDS_P2;PMS_P1;PMS_P2;Temp;Humidity;BMP_temperature;BMP_pressure;BME280_temperature;BME280_humidity;BME280_pressure;Samples;Min_cycle;Max_cycle;Signal;HPM_P1;HPM_P2
2022/11/09 00:01:37;;;;;;;3.28;1.50;;;12.90;99.90;;;11.85;82.22;100450.16;5011831;28;20038;-84
2022/11/09 00:04:05;;;;;;;7.10;1.55;;;12.90;99.90;;;11.85;81.91;100439.59;5011985;28;20033;-82
2022/11/09 00:06:33;;;;;;;6.20;1.80;;;12.90;99.90;;;11.82;81.17;100443.25;5001305;28;20036;-83
2022/11/09 00:09:06;;;;;;;4.65;1.50;;;12.90;99.90;;;11.81;81.46;100445.97;4992230;28;20030;-83
2022/11/09 00:11:32;;;;;;;5.97;1.40;;;12.90;99.90;;;11.79;81.84;100453.13;5004627;28;20033;-82
2022/11/09 00:13:58;;;;;;;6.80;1.40;;;12.90;99.90;;;11.78;81.51;100449.66;5012804;28;20026;-83
2022/11/09 00:16:23;;;;;;;4.15;1.70;;;12.80;99.90;;;11.77;81.77;100449.72;4995487;28;20056;-83
2022/11/09 00:18:58;;;;;;;4.13;1.52;;;12.80;99.90;;;11.72;81.83;100452.63;4991781;28;20161;-83
2022/11/09 00:21:24;;;;;;;3.25;1.67;;;12.80;99.90;;;11.69;82.45;100453.66;5022606;28;20033;-83
2022/11/09 00:23:51;;;;;;;5.43;1.60;;;12.80;99.90;;;11.65;82.16;100454.75;5014943;28;20034;-83
2022/11/09 00:26:27;;;;;;;5.75;1.83;;;12.80;99.90;;;11.65;82.98;100456.53;5005190;28;20033;-84
2022/11/09 00:28:55;;;;;;;5.80;1.52;;;12.80;99.90;;;11.63;82.42;100453.13;5002890;28;20449;-82
2022/11/09 00:31:31;;;;;;;2.83;1.25;;;12.70;99.90;;;11.60;82.75;100448.03;4994958;28;20048;-83
2022/11/09 00:33:57;;;;;;;3.80;1.60;;;12.70;99.90;;;11.63;83.15;100453.97;4994793;28;20026;-83
2022/11/09 00:36:33;;;;;;;4.20;1.50;;;12.70;99.90;;;11.59;83.18;100454.25;4989904;28;20079;-82
2022/11/09 00:39:00;;;;;;;2.25;1.17;;;12.60;99.90;;;11.56;83.55;100451.78;5007816;28;20560;-83
2022/11/09 00:41:27;;;;;;;4.05;1.38;;;12.60;99.90;;;11.56;83.18;100457.91;5012816;28;20093;-84
2022/11/09 00:43:53;;;;;;;3.58;1.50;;;12.70;99.90;;;11.55;83.40;100455.34;5007990;28;20164;-82
2022/11/09 00:46:25;;;;;;;7.43;1.90;;;12.60;99.90;;;11.53;84.11;100455.41;5014739;28;20042;-83
2022/11/09 00:48:53;;;;;;;3.10;1.50;;;12.60;99.90;;;11.49;83.43;100452.13;4999624;28;20041;-83
2022/11/09 00:51:19;;;;;;;10.13;1.75;;;12.60;99.90;;;11.48;83.98;100449.56;5014317;28;20053;-83
2022/11/09 00:53:47;;;;;;;5.28;1.38;;;12.50;99.90;;;11.42;84.40;100448.09;4989304;23;20048;-84
2022/11/09 00:56:15;;;;;;;3.08;1.48;;;12.50;99.90;;;11.42;83.84;100448.09;4958426;28;20027;-84
2022/11/09 00:58:41;;;;;;;11.85;2.65;;;12.50;99.90;;;11.39;84.06;100450.91;4974897;28;20090;-83
2022/11/09 01:01:20;;;;;;;4.72;2.08;;;12.50;99.90;;;11.35;84.48;100448.53;4974152;28;20043;-84
2022/11/09 01:03:46;;;;;;;6.75;2.00;;;12.40;99.90;;;11.31;84.76;100444.34;4973867;28;20471;-84
2022/11/09 01:06:24;;;;;;;4.93;2.20;;;12.40;99.90;;;11.26;85.08;100448.09;4974393;28;20046;-84
2022/11/09 01:08:50;;;;;;;3.30;1.50;;;12.40;99.90;;;11.23;85.21;100450.03;4974052;28;20768;-84
2022/11/09 01:11:18;;;;;;;3.65;1.50;;;12.30;99.90;;;11.19;85.20;100454.63;4956962;28;20476;-83
2022/11/09 01:13:44;;;;;;;5.03;1.67;;;12.30;99.90;;;11.18;85.44;100460.81;4974035;28;20027;-83
2022/11/09 01:16:21;;;;;;;4.35;1.60;;;12.30;99.90;;;11.15;85.37;100453.09;4973972;28;20030;-85
2022/11/09 01:18:59;;;;;;;5.82;1.60;;;12.30;99.90;;;11.12;85.46;100457.66;4958790;28;20037;-84
2022/11/09 01:21:28;;;;;;;4.35;1.63;;;12.20;99.90;;;11.09;85.48;100456.03;4957955;28;20109;-84
2022/11/09 01:24:02;;;;;;;8.55;1.88;;;12.20;99.90;;;11.06;85.45;100450.94;4957981;28;20038;-85
2022/11/09 01:26:29;;;;;;;2.78;1.42;;;12.20;99.90;;;10.99;85.83;100446.91;4973331;28;20035;-85
2022/11/09 01:28:55;;;;;;;6.20;1.75;;;;;;;10.92;85.67;100443.75;4976116;28;20034;-85
2022/11/09 01:31:28;;;;;;;12.77;1.83;;;12.10;99.90;;;10.87;85.88;100444.00;4978192;28;20035;-83
2022/11/09 01:33:54;;;;;;;3.72;1.75;;;12.00;99.90;;;10.80;86.30;100442.63;4984516;28;20023;-84
2022/11/09 01:36:23;;;;;;;8.23;1.80;;;11.90;99.90;;;10.75;86.77;100442.00;4976817;28;20086;-84
2022/11/09 01:38:54;;;;;;;3.55;1.60;;;11.90;99.90;;;10.68;86.72;100444.09;4961438;28;20402;-82
2022/11/09 01:41:27;;;;;;;3.55;1.58;;;11.80;99.90;;;10.62;86.87;100425.13;4976040;28;20037;-83
2022/11/09 01:44:17;;;;;;;8.10;2.03;;;11.80;99.90;;;10.55;86.72;100426.38;4974602;28;20527;-83
2022/11/09 01:47:19;;;;;;;4.20;1.80;;;11.70;99.90;;;10.44;86.60;100433.03;4977298;28;20125;-83
2022/11/09 01:49:57;;;;;;;5.07;1.65;;;11.60;99.90;;;10.33;87.39;100427.47;4975235;28;20035;-84
2022/11/09 01:52:37;;;;;;;4.45;1.30;;;11.50;99.90;;;10.26;87.77;100431.31;4975352;28;20035;-84
2022/11/09 01:55:16;;;;;;;5.55;1.73;;;11.40;99.90;;;10.18;88.34;100429.06;4960012;28;20537;-83
2022/11/09 01:58:12;;;;;;;3.78;1.52;;;11.30;99.90;;;10.14;88.65;100426.66;4977027;28;20156;-82
2022/11/09 02:00:51;;;;;;;6.78;2.05;;;11.30;99.90;;;10.11;88.97;100427.66;4977147;28;20030;-84
2022/11/09 02:03:26;;;;;;;4.32;1.63;;;11.20;99.90;;;10.07;89.12;100421.69;4973349;28;20042;-84
2022/11/09 02:05:52;;;;;;;4.93;1.90;;;11.20;99.90;;;10.02;89.20;100414.94;4962037;28;20886;-83
2022/11/09 02:08:22;;;;;;;6.38;2.10;;;11.20;99.90;;;9.98;89.93;100418.69;4976027;28;20042;-84
2022/11/09 02:11:16;;;;;;;6.10;1.70;;;11.10;99.90;;;9.93;89.97;100407.50;4976902;28;20071;-83
2022/11/09 02:13:55;;;;;;;5.65;2.10;;;11.10;99.90;;;9.91;90.37;100404.94;4975792;28;20081;-83
2022/11/09 02:16:22;;;;;;;5.85;1.35;;;11.10;99.90;;;9.84;91.14;100399.13;4960953;28;20483;-83
2022/11/09 02:18:56;;;;;;;3.30;1.25;;;11.00;99.90;;;9.82;90.78;100402.78;4977126;28;20047;-84
2022/11/09 02:21:25;;;;;;;2.88;1.40;;;11.00;99.90;;;9.76;91.15;100397.81;4976886;28;20023;-83
2022/11/09 02:23:51;;;;;;;4.43;1.70;;;11.00;99.90;;;9.74;91.21;100391.78;4975562;28;20483;-84
2022/11/09 02:26:49;;;;;;;6.18;1.55;;;10.90;99.90;;;9.72;91.28;100396.25;4975901;28;20038;-84
2022/11/09 02:29:41;;;;;;;8.10;1.60;;;10.90;99.90;;;9.68;91.61;100392.94;4944266;28;20054;-84
2022/11/09 02:32:23;;;;;;;3.30;1.70;;;10.90;99.90;;;9.67;92.03;100382.50;4959249;28;20123;-84
2022/11/09 02:34:48;;;;;;;3.53;1.40;;;10.80;99.90;;;9.67;92.47;100379.84;4976934;28;20663;-84
2022/11/09 02:37:52;;;;;;;6.32;1.60;;;10.80;99.90;;;9.71;92.32;100381.41;4976261;28;20034;-84
2022/11/09 02:40:36;;;;;;;6.53;1.50;;;10.90;99.90;;;9.70;92.28;100374.44;4977776;28;20030;-83
2022/11/09 02:43:10;;;;;;;6.82;2.00;;;10.90;99.90;;;9.70;92.70;100374.44;4959391;28;20033;-83
2022/11/09 02:45:37;;;;;;;9.05;1.90;;;10.80;99.90;;;9.68;92.27;100368.44;4975804;28;20043;-85
2022/11/09 02:48:03;;;;;;;4.95;1.70;;;10.80;99.90;;;9.68;92.59;100371.91;4975759;28;20495;-83
2022/11/09 02:50:29;;;;;;;2.70;1.60;;;10.80;99.90;;;9.68;92.58;100371.06;4960090;28;20066;-85
2022/11/09 02:53:05;;;;;;;4.68;1.88;;;10.80;99.90;;;9.63;93.13;100364.25;4978445;28;20066;-84
2022/11/09 02:55:31;;;;;;;3.38;1.70;;;10.80;99.90;;;9.64;92.99;100373.81;4980075;28;20062;-84
2022/11/09 02:57:57;;;;;;;4.65;1.92;;;10.80;99.90;;;9.67;93.09;100379.84;4980237;28;20082;-84
2022/11/09 03:00:22;;;;;;;5.57;1.80;;;10.80;99.90;;;9.69;92.85;100380.63;4976688;28;20043;-85
2022/11/09 03:02:48;;;;;;;5.95;1.65;;;10.90;99.90;;;9.68;93.12;100395.56;4994731;28;20054;-83
2022/11/09 03:05:20;;;;;;;5.85;1.85;;;10.90;99.90;;;9.65;92.81;100399.19;4978442;28;20039;-84
2022/11/09 03:07:45;;;;;;;6.70;1.92;;;10.80;99.90;;;9.64;92.61;100394.84;4978577;28;20018;-85
2022/11/09 03:10:11;;;;;;;4.43;1.50;;;10.80;99.90;;;9.61;92.87;100384.50;4979158;28;20054;-84
2022/11/09 03:12:37;;;;;;;3.70;1.65;;;10.80;99.90;;;9.56;93.54;100385.63;4960666;28;20025;-84
2022/11/09 03:15:16;;;;;;;10.75;1.92;;;10.80;99.90;;;9.58;93.30;100391.66;4977257;28;20035;-84
2022/11/09 03:17:42;;;;;;;4.57;1.92;;;10.80;99.90;;;9.53;93.59;100384.00;4977293;28;20027;-82
2022/11/09 03:20:09;;;;;;;4.90;1.80;;;10.70;99.90;;;9.51;94.16;100374.50;4976008;28;20110;-85
2022/11/09 03:22:39;;;;;;;6.32;1.70;;;10.70;99.90;;;9.50;94.36;100393.81;4992614;28;20058;-84
2022/11/09 03:25:06;;;;;;;5.60;1.73;;;10.70;99.90;;;9.48;94.77;100391.28;4975873;28;20026;-85
2022/11/09 03:27:32;;;;;;;4.97;1.73;;;10.60;99.90;;;9.47;95.08;100396.59;4976307;28;20314;-84
2022/11/09 03:29:57;;;;;;;5.03;1.70;;;10.60;99.90;;;9.45;95.39;100394.03;4976590;28;20058;-84
2022/11/09 03:32:23;;;;;;;4.80;1.83;;;10.70;99.90;;;9.48;95.46;100391.28;4957677;28;20030;-83
2022/11/09 03:34:58;;;;;;;4.53;1.75;;;10.70;99.90;;;9.50;95.77;100384.13;4960095;28;20073;-85
2022/11/09 03:37:24;;;;;;;6.07;1.77;;;10.70;99.90;;;9.54;96.31;100379.59;4975903;28;20031;-84
2022/11/09 03:39:50;;;;;;;6.68;1.70;;;10.70;99.90;;;9.59;95.83;100385.47;4959368;28;20694;-84
2022/11/09 03:42:16;;;;;;;8.20;2.08;;;10.80;99.90;;;9.63;95.92;100390.53;4956987;28;20122;-85
2022/11/09 03:44:47;;;;;;;5.80;1.88;;;10.80;99.90;;;9.72;96.11;100405.00;4973420;28;20035;-83
2022/11/09 03:47:13;;;;;;;6.22;2.50;;;10.90;99.90;;;9.77;96.15;100396.91;4974457;28;20106;-83
2022/11/09 03:49:38;;;;;;;9.73;2.13;;;10.90;99.90;;;9.83;96.80;100389.56;4975110;28;20090;-85
2022/11/09 03:52:04;;;;;;;8.23;2.00;;;11.00;99.90;;;9.90;96.98;100395.38;4973064;28;20055;-85
2022/11/09 03:54:30;;;;;;;5.65;1.50;;;11.00;99.90;;;9.94;97.28;100388.19;4975474;28;20137;-84
2022/11/09 03:56:56;;;;;;;5.55;1.80;;;11.10;99.90;;;10.01;96.83;100389.59;4964856;28;20086;-84
2022/11/09 03:59:29;;;;;;;10.88;2.15;;;11.20;99.90;;;10.05;96.65;100383.25;4959866;28;20027;-85
2022/11/09 04:01:54;;;;;;;4.53;1.80;;;11.20;99.90;;;10.11;96.78;100389.97;4972041;28;20104;-84
2022/11/09 04:04:20;;;;;;;3.28;1.83;;;11.20;99.90;;;10.15;96.37;100388.88;4974954;28;20121;-84
2022/11/09 04:06:46;;;;;;;3.40;1.52;;;11.30;99.90;;;10.15;96.71;100387.13;4974572;28;20056;-85
2022/11/09 04:09:12;;;;;;;6.85;1.75;;;11.30;99.90;;;10.20;95.86;100389.53;4958994;28;20131;-83
2022/11/09 04:11:46;;;;;;;6.63;2.13;;;11.40;99.90;;;10.26;95.62;100384.78;4973077;28;20038;-84
2022/11/09 04:14:12;;;;;;;5.43;2.25;;;11.40;99.90;;;10.28;95.72;100382.09;4973385;28;20033;-85
2022/11/09 04:16:38;;;;;;;3.33;1.60;;;11.40;99.90;;;10.33;95.91;100380.09;4957979;28;20094;-84
2022/11/09 04:19:04;;;;;;;3.33;1.50;;;11.50;99.90;;;10.38;95.67;100385.13;4974169;28;20099;-83
2022/11/09 04:21:32;;;;;;;2.53;1.33;;;11.50;99.90;;;10.43;94.96;100389.25;4972578;28;20038;-83
2022/11/09 04:24:00;;;;;;;8.95;2.13;;;11.50;99.90;;;10.43;95.00;100386.59;4957247;28;20031;-84
2022/11/09 04:26:26;;;;;;;4.53;1.80;;;11.60;99.90;;;10.46;95.40;100386.44;4975794;28;20050;-83
2022/11/09 04:28:52;;;;;;;6.00;1.58;;;11.60;99.90;;;10.50;94.72;100391.56;4976704;28;20122;-84
2022/11/09 04:31:17;;;;;;;3.65;1.70;;;11.60;99.90;;;10.56;94.69;100384.19;4978429;28;20054;-84
2022/11/09 04:33:55;;;;;;;4.22;1.90;;;11.70;99.90;;;10.61;94.82;100376.06;4960470;28;20193;-83
2022/11/09 04:36:21;;;;;;;6.78;1.63;;;11.80;99.90;;;10.65;94.52;100377.59;4976509;28;20034;-83
2022/11/09 04:38:47;;;;;;;5.93;1.95;;;11.80;99.90;;;10.71;93.95;100374.63;4961754;28;20037;-84
2022/11/09 04:41:13;;;;;;;4.15;1.70;;;11.90;99.90;;;10.76;93.64;100369.13;4960857;28;20394;-83
2022/11/09 04:43:44;;;;;;;7.15;1.65;;;11.90;99.90;;;10.80;93.43;100376.78;4976777;28;20038;-85
2022/11/09 04:46:10;;;;;;;2.88;1.45;;;11.90;99.90;;;10.84;93.59;100382.72;4976640;28;20038;-84
2022/11/09 04:48:36;;;;;;;6.28;1.77;;;12.00;99.90;;;10.87;92.67;100386.06;4976505;28;20527;-84
2022/11/09 04:51:12;;;;;;;3.80;1.60;;;12.00;99.90;;;10.93;93.08;100384.00;4961012;28;20035;-85
2022/11/09 04:53:38;;;;;;;4.55;1.80;;;12.10;99.90;;;10.96;92.48;100383.88;4974467;28;20035;-84
2022/11/09 04:56:06;;;;;;;7.68;1.98;;;12.10;99.90;;;11.02;91.84;100388.81;4960478;28;20122;-84
2022/11/09 04:58:32;;;;;;;8.25;1.95;;;12.10;99.90;;;11.05;91.77;100389.47;4979384;28;20484;-85
2022/11/09 05:01:09;;;;;;;5.10;1.88;;;12.10;99.90;;;11.05;91.97;100392.09;4977021;28;20043;-84
2022/11/09 05:03:35;;;;;;;6.57;2.22;;;12.20;99.90;;;11.07;91.44;100386.75;4975771;28;20180;-84
2022/11/09 05:08:54;;;;;;;4.90;1.60;;;12.20;99.90;;;11.09;91.51;100392.81;4977271;28;20079;-84
2022/11/09 05:11:21;;;;;;;3.33;1.70;;;12.20;99.90;;;11.09;91.28;100400.72;4958926;28;20031;-82
2022/11/09 05:13:52;;;;;;;2.67;1.25;;;12.20;99.90;;;11.09;91.21;100398.06;4975455;28;20035;-86
2022/11/09 05:16:19;;;;;;;7.30;2.00;;;12.20;99.90;;;11.14;90.48;100403.94;4973804;28;20332;-85
2022/11/09 05:18:45;;;;;;;4.43;1.92;;;12.30;99.90;;;11.19;90.22;100403.72;4961047;28;20480;-85
2022/11/09 05:21:12;;;;;;;6.22;1.50;;;12.30;99.90;;;11.25;89.86;100409.50;4976365;28;20066;-83
2022/11/09 05:24:01;;;;;;;3.60;1.70;;;12.30;99.90;;;11.26;89.64;100413.81;4958557;28;20113;-85
2022/11/09 05:26:44;;;;;;;6.35;1.60;;;12.40;99.90;;;11.32;88.91;100417.03;4977222;28;20034;-83
2022/11/09 05:29:12;;;;;;;5.07;1.70;;;12.40;99.90;;;11.35;88.88;100409.00;4977943;28;20046;-85
2022/11/09 05:31:39;;;;;;;6.88;1.98;;;12.50;99.90;;;11.38;88.96;100401.78;4975373;28;20519;-84
2022/11/09 05:34:12;;;;;;;11.07;1.65;;;12.50;99.90;;;11.41;88.65;100398.09;4960336;28;20403;-83
2022/11/09 05:36:37;;;;;;;4.90;1.70;;;12.50;99.90;;;11.44;88.31;100403.19;4976456;28;20030;-85
2022/11/09 05:39:03;;;;;;;4.00;1.70;;;12.50;99.90;;;11.44;88.79;100398.78;4976772;28;20101;-83
2022/11/09 05:41:29;;;;;;;5.95;1.92;;;12.50;99.90;;;11.40;88.23;100397.28;4974544;28;20042;-84
2022/11/09 05:44:04;;;;;;;9.10;2.03;;;12.50;99.90;;;11.40;88.56;100399.91;4975417;28;20130;-85
2022/11/09 05:46:31;;;;;;;7.57;2.10;;;12.50;99.90;;;11.39;88.89;100399.97;4976464;28;20491;-83
2022/11/09 05:48:57;;;;;;;8.75;1.90;;;12.50;99.90;;;11.34;88.81;100388.81;4976177;28;20047;-83
2022/11/09 05:51:32;;;;;;;7.15;2.22;;;12.50;99.90;;;11.32;89.00;100402.09;4975877;28;20086;-84
2022/11/09 05:53:58;;;;;;;4.55;2.05;;;12.50;99.90;;;11.30;89.63;100398.69;4974738;28;20440;-85
2022/11/09 05:56:24;;;;;;;3.78;1.80;;;12.40;99.90;;;11.27;89.22;100405.00;4967638;28;20090;-83
2022/11/09 05:58:56;;;;;;;4.22;2.13;;;12.40;99.90;;;11.28;89.29;100395.28;4983468;28;20027;-83
2022/11/09 06:01:21;;;;;;;4.88;1.95;;;12.40;99.90;;;11.24;89.50;100399.88;4976737;28;20076;-83
2022/11/09 06:03:47;;;;;;;8.55;2.42;;;12.40;99.90;;;11.24;89.34;100399.88;4975896;28;20061;-85
2022/11/09 06:06:15;;;;;;;8.00;2.10;;;12.40;99.90;;;11.25;89.25;100400.72;4975280;28;20035;-83
2022/11/09 06:08:41;;;;;;;4.22;1.85;;;12.30;99.90;;;11.22;89.53;100401.75;4959246;28;20026;-84
2022/11/09 06:11:12;;;;;;;5.38;2.10;;;12.30;99.90;;;11.22;89.85;100400.91;4957725;28;20503;-83
2022/11/09 06:13:38;;;;;;;6.68;2.28;;;12.30;99.90;;;11.23;90.10;100402.59;4972406;28;20039;-84
2022/11/09 06:16:05;;;;;;;7.80;2.33;;;12.40;99.90;;;11.22;90.22;100395.63;4957233;28;20023;-83
2022/11/09 06:18:43;;;;;;;4.68;1.92;;;12.30;99.90;;;11.22;90.15;100396.47;4975322;28;20042;-84
2022/11/09 06:21:09;;;;;;;6.07;2.10;;;12.40;99.90;;;11.24;89.76;100399.88;4973653;28;20117;-84
2022/11/09 06:23:35;;;;;;;8.57;2.35;;;12.30;99.90;;;11.22;89.80;100396.47;4959859;28;20037;-84
2022/11/09 06:26:09;;;;;;;5.50;2.03;;;12.30;99.90;;;11.22;89.61;100395.63;4976958;28;20035;-84
2022/11/09 06:28:37;;;;;;;7.13;2.00;;;12.30;99.90;;;11.20;89.84;100393.06;4976597;28;20127;-83
2022/11/09 06:31:11;;;;;;;3.65;1.92;;;12.30;99.90;;;11.21;90.33;100401.81;4974688;28;20034;-83
2022/11/09 06:33:37;;;;;;;7.60;2.20;;;12.30;99.90;;;11.20;90.13;100406.25;4974946;28;20026;-83
2022/11/09 06:36:04;;;;;;;4.88;2.00;;;12.30;99.90;;;11.20;89.92;100408.03;4974658;28;20041;-83
2022/11/09 06:38:30;;;;;;;6.53;2.20;;;12.30;99.90;;;11.19;90.25;100404.56;4958846;28;20389;-84
2022/11/09 06:41:07;;;;;;;7.78;2.25;;;12.30;99.90;;;11.21;89.98;100404.44;4959229;28;20098;-83
2022/11/09 06:43:34;;;;;;;5.07;2.22;;;12.30;99.90;;;11.24;90.22;100409.56;4974274;28;20038;-84
2022/11/09 06:46:12;;;;;;;5.07;2.00;;;12.30;99.90;;;11.22;90.45;100403.53;4974715;28;20030;-83
2022/11/09 06:48:38;;;;;;;8.18;2.25;;;12.30;99.90;;;11.24;89.99;100401.66;4974103;28;20034;-85
2022/11/09 06:51:14;;;;;;;5.30;2.20;;;12.30;99.90;;;11.28;90.31;100411.94;4973814;28;20054;-83
2022/11/09 06:53:40;;;;;;;3.38;1.90;;;12.40;99.90;;;11.29;90.23;100405.75;4973633;28;20114;-84
2022/11/09 06:56:07;;;;;;;7.35;2.20;;;12.40;99.90;;;11.33;89.49;100410.84;4958398;28;20211;-85
2022/11/09 06:58:39;;;;;;;4.22;1.95;;;12.50;99.90;;;11.38;89.62;100407.03;4975145;28;20563;-84
2022/11/09 07:01:10;;;;;;;5.75;2.22;;;12.50;99.90;;;11.41;89.59;100406.88;4965987;28;20039;-85
2022/11/09 07:03:37;;;;;;;4.35;1.90;;;12.50;99.90;;;11.42;89.07;100407.72;4958125;28;20046;-85
2022/11/09 07:06:11;;;;;;;9.88;2.20;;;12.50;99.90;;;11.44;88.83;100408.47;4957785;28;20027;-84
2022/11/09 07:08:38;;;;;;;9.27;1.90;;;12.60;99.90;;;11.47;88.40;100411.81;4958806;28;20030;-85
2022/11/09 07:11:12;;;;;;;3.67;1.75;;;12.60;99.90;;;11.54;88.27;100411.47;4974177;28;20035;-83
2022/11/09 07:13:39;;;;;;;3.28;1.77;;;12.60;99.90;;;11.58;87.79;100413.00;4974077;28;20498;-84
2022/11/09 07:16:10;;;;;;;6.97;1.65;;;12.70;99.90;;;11.59;87.94;100415.53;4957729;28;20038;-85
2022/11/09 07:18:39;;;;;;;10.63;2.50;;;12.70;99.90;;;11.65;87.54;100422.25;4974943;28;20053;-84
2022/11/09 07:21:05;;;;;;;4.90;1.95;;;12.80;99.90;;;11.72;87.13;100428.03;4973853;28;20031;-84
2022/11/09 07:23:31;;;;;;;6.22;1.95;;;12.80;99.90;;;11.70;87.45;100429.00;4973917;28;20083;-83
2022/11/09 07:25:58;;;;;;;5.07;1.98;;;12.80;99.90;;;11.75;87.67;100433.13;4958209;28;20094;-85
2022/11/09 07:28:24;;;;;;;8.50;2.33;;;12.80;99.90;;;11.76;87.13;100443.59;4974506;28;20038;-84
2022/11/09 07:30:59;;;;;;;4.22;1.92;;;12.90;99.90;;;11.76;87.29;100443.59;4957620;28;20058;-85
2022/11/09 07:33:29;;;;;;;5.93;2.20;;;12.90;99.90;;;11.79;86.92;100451.38;4972173;28;20026;-85
2022/11/09 07:36:05;;;;;;;10.80;2.30;;;12.90;99.90;;;11.83;87.16;100454.66;4957292;28;20333;-83
2022/11/09 07:38:31;;;;;;;;;;;12.90;99.90;;;11.82;86.95;100451.19;4971952;28;20118;-83
2022/11/09 07:41:03;;;;;;;9.13;2.40;;;12.90;99.90;;;11.83;87.70;100454.66;4973925;28;20365;-85
2022/11/09 07:43:29;;;;;;;6.80;2.22;;;12.90;99.90;;;11.84;87.89;100448.47;4972356;28;20407;-85
2022/11/09 07:45:56;;;;;;;8.85;2.10;;;;;;;11.86;87.66;100443.94;4956217;28;20029;-85
2022/11/09 07:48:22;;;;;;;7.68;2.88;;;13.00;99.90;;;11.87;88.33;100441.19;4974191;28;20039;-84
2022/11/09 07:50:49;;;;;;;7.60;2.20;;;13.00;99.90;;;11.85;88.31;100448.34;4956702;28;20030;-84
2022/11/09 07:53:24;;;;;;;3.65;2.10;;;13.00;99.90;;;11.85;88.99;100448.34;4983736;23;20041;-84
2022/11/09 07:56:03;;;;;;;5.85;2.33;;;;;;;11.86;88.48;100436.88;5054616;23;20046;-84
2022/11/09 07:59:01;;;;;;;4.30;2.08;;;13.00;99.90;;;11.87;88.38;100435.09;5012882;28;20040;-84
2022/11/09 08:01:53;;;;;;;3.42;2.03;;;13.00;99.90;;;11.92;88.72;100440.97;5000368;28;20092;-83
2022/11/09 08:04:22;;;;;;;5.13;2.03;;;13.00;99.90;;;11.92;89.18;100442.78;5016560;28;20029;-83
2022/11/09 08:07:33;;;;;;;7.82;1.90;;;13.00;99.90;;;11.93;88.93;100439.22;4996911;28;20033;-82
2022/11/09 08:10:31;;;;;;;6.70;1.92;;;13.00;99.90;;;11.92;89.42;100448.03;4959030;28;20043;-82
2022/11/09 08:13:12;;;;;;;6.90;1.88;;;13.00;99.90;;;11.89;90.64;100444.63;4967471;28;20056;-83
2022/11/09 08:16:24;;;;;;;5.80;1.85;;;13.00;99.90;;;11.88;90.65;100448.22;4980331;23;21532;-84
2022/11/09 08:19:02;;;;;;;3.80;1.90;;;13.00;99.90;;;11.97;91.46;100451.28;4921074;29;20505;-81
2022/11/09 08:21:44;;;;;;;7.57;2.20;;;13.00;99.90;;;11.97;91.13;100444.22;4904243;29;20040;-84
2022/11/09 08:24:49;;;;;;;3.95;2.08;;;13.10;99.90;;;12.03;91.59;100438.59;4917923;29;20032;-80
2022/11/09 08:27:27;;;;;;;;;;;;;;;;;;;;;
2022/11/09 08:30:11;;;;;;;3.47;1.80;;;13.10;99.90;;;12.07;91.21;100440.13;4939840;28;20047;-83
2022/11/09 08:32:53;;;;;;;4.18;1.67;;;;;;;12.10;90.83;100447.84;4971580;28;20046;-85
2022/11/09 08:35:50;;;;;;;4.70;1.95;;;13.20;99.90;;;12.14;90.43;100447.66;5001976;22;20030;-84
2022/11/09 08:38:28;;;;;;;;;;;13.10;99.90;;;12.15;90.08;100447.59;4983316;28;20042;-82
2022/11/09 08:41:37;;;;;;;5.68;2.10;;;13.20;99.90;;;12.17;90.09;100439.59;5004961;28;19919;-83
2022/11/09 08:44:09;;;;;;;4.07;1.60;;;13.30;99.90;;;12.30;89.99;100444.06;5001322;28;20037;-81
2022/11/09 08:46:49;;;;;;;4.20;1.75;;;;;;;12.41;89.36;100440.78;4998866;28;20037;-84
2022/11/09 08:50:00;;;;;;;2.72;1.80;;;13.40;99.90;;;12.48;88.08;100441.28;5009345;28;20034;-84
2022/11/09 08:52:41;;;;;;;4.60;1.98;;;13.50;99.90;;;12.57;88.01;100447.81;4996445;28;20049;-84
2022/11/09 08:58:01;;;;;;;4.20;1.98;;;;;;;12.61;87.01;100462.53;5057872;22;20049;-84
2022/11/09 09:00:41;;;;;;;5.63;1.90;;;13.60;99.90;;;12.63;86.83;100460.66;5036070;28;20026;-84
2022/11/09 09:03:51;;;;;;;3.47;1.73;;;13.60;99.90;;;12.70;86.87;100472.56;4975666;28;20046;-84
2022/11/09 09:06:29;;;;;;;5.93;1.90;;;13.70;99.90;;;12.69;86.79;100476.97;5003210;28;20619;-85
2022/11/09 09:09:21;;;;;;;4.22;1.92;;;;;;;12.68;86.85;100455.97;5018365;28;20069;-84
2022/11/09 09:12:01;;;;;;;6.13;2.05;;;;;;;12.73;86.50;100459.16;4989001;28;20060;-84
2022/11/09 09:14:43;;;;;;;4.50;1.80;;;13.80;99.90;;;12.85;86.63;100466.38;5015581;28;20044;-82
2022/11/09 09:17:22;;;;;;;4.13;1.90;;;13.90;99.90;;;12.98;86.09;100471.75;5058170;22;20060;-83
2022/11/09 09:20:04;;;;;;;5.03;2.03;;;14.00;99.90;;;13.18;85.44;100475.81;5037282;28;20032;-81
2022/11/09 09:22:32;;;;;;;3.15;1.65;;;;;;;13.29;85.35;100478.69;5037810;28;20132;-82
2022/11/09 09:25:21;;;;;;;4.15;1.70;;;14.20;99.90;;;13.40;84.23;100477.16;5057414;28;20029;-85
2022/11/09 09:27:53;;;;;;;4.20;1.80;;;14.40;99.90;;;13.62;84.19;100477.50;5037914;28;20501;-82
2022/11/09 09:33:26;;;;;;;4.10;1.60;;;14.70;99.90;;;14.01;82.56;100491.78;5048712;28;20048;-84
2022/11/09 09:36:24;;;;;;;3.45;1.80;;;;;;;14.23;81.91;100493.88;5042337;22;20042;-84
2022/11/09 09:38:57;;;;;;;9.90;1.70;;;15.20;99.90;;;14.67;80.84;100497.22;4935732;29;20508;-83
2022/11/09 09:41:59;;;;;;;3.47;1.80;;;15.50;99.90;;;14.94;79.91;100475.94;4911029;29;20047;-82
2022/11/09 09:45:04;;;;;;;4.45;1.60;;;15.70;99.90;;;15.05;78.93;100483.16;4992078;28;20133;-83
2022/11/09 09:51:31;;;;;;;6.82;2.08;;;;;;;14.75;78.54;100482.50;4917363;29;20084;-86
2022/11/09 09:55:00;;;;;;;5.60;1.85;;;15.80;99.90;;;14.77;78.83;100477.09;4902541;28;20104;-84
2022/11/09 09:57:35;;;;;;;5.32;1.92;;;15.70;99.90;;;14.75;79.24;100484.28;5010456;23;20077;-84
2022/11/09 10:00:09;;;;;;;4.47;3.13;;;15.70;99.90;;;14.71;79.27;100488.97;4976327;28;20026;-84
2022/11/09 10:02:43;;;;;;;5.13;2.17;;;15.70;99.90;;;14.75;79.56;100485.16;4981302;28;20042;-84
2022/11/09 10:05:41;;;;;;;15.18;13.68;;;15.80;99.90;;;14.87;79.50;100487.91;4989115;28;20126;-85
2022/11/09 10:09:00;;;;;;;3.65;1.80;;;15.80;99.90;;;14.87;79.72;100483.47;4987700;28;20054;-82
2022/11/09 10:11:35;;;;;;;;;;;15.80;99.90;;;14.68;78.93;100488.31;4988877;28;20072;-81
2022/11/09 10:14:40;;;;;;;3.03;1.13;;;15.70;99.90;;;14.62;79.89;100488.72;4984875;28;20287;-81
2022/11/09 10:17:58;;;;;;;3.50;0.82;;;15.70;99.90;;;14.65;80.07;100481.44;4977162;23;20039;-80
2022/11/09 10:21:20;;;;;;;2.83;0.65;;;15.70;99.90;;;14.74;80.67;100493.19;4982744;28;20047;-80
2022/11/09 10:24:05;;;;;;;1.77;0.40;;;15.70;99.90;;;14.84;80.70;100494.28;4964214;28;20065;-80
2022/11/09 10:26:48;;;;;;;0.63;0.40;;;15.80;99.90;;;14.92;80.60;100484.00;4984111;28;20038;-80
2022/11/09 10:29:53;;;;;;;1.23;0.47;;;15.90;99.90;;;14.96;79.84;100488.13;4965346;28;20050;-80
2022/11/09 10:32:24;;;;;;;1.20;0.45;;;15.90;99.90;;;15.00;80.02;100479.97;4876856;29;20557;-81
2022/11/09 10:37:45;;;;;;;0.82;0.55;;;16.00;99.90;;;15.07;80.43;100475.94;4994879;23;20059;-83
2022/11/09 10:40:41;;;;;;;0.77;0.40;;;16.10;99.90;;;15.06;80.68;100461.00;4985289;28;20047;-83
2022/11/09 10:43:16;;;;;;;0.60;0.40;;;16.00;99.90;;;15.16;80.47;100469.97;4988847;28;20073;-83
2022/11/09 10:46:07;;;;;;;1.42;0.57;;;16.10;99.90;;;15.28;80.12;100476.25;4992988;28;20047;-81
2022/11/09 10:48:41;;;;;;;1.45;0.50;;;16.20;99.90;;;15.46;80.02;100474.09;5001699;28;20054;-83
2022/11/09 10:51:45;;;;;;;3.35;0.45;;;16.40;99.90;;;15.59;79.35;100478.44;5003364;28;20038;-82
2022/11/09 10:54:32;;;;;;;0.40;0.40;;;16.50;99.90;;;15.80;78.56;100483.16;5004989;28;20521;-81
2022/11/09 10:57:25;;;;;;;4.22;1.58;;;16.60;99.90;;;15.90;78.55;100480.72;5006562;28;20034;-81
2022/11/09 10:59:58;;;;;;;2.05;1.40;;;16.80;99.90;;;15.92;78.24;100484.09;5011775;28;20510;-82
2022/11/09 11:02:30;;;;;;;5.80;1.80;;;16.80;99.90;;;15.92;77.51;100484.09;5003760;28;20081;-83
2022/11/09 11:05:17;;;;;;;8.82;1.88;;;16.90;99.90;;;15.98;77.62;100483.63;5009726;28;20045;-81